Time,TemperatureF,DewpointF,PressureIn,WindDirection,WindDirectionDegrees,WindSpeedMPH,WindSpeedGustMPH,Humidity,HourlyPrecipIn,Conditions,Clouds,dailyrainin,SolarRadiationWatts/m^2,SoftwareType,DateUTC
2015-05-05 00:11:00,68.0,61.0,30.12,SW,235,0.0,0.0,79,-99.99,,,-99.99,0.000000,,2015-05-05 04:11:00,
2015-05-05 00:21:00,68.0,61.0,30.12,SW,235,0.0,1.0,79,-99.99,,,-99.99,0.000000,,2015-05-05 04:21:00,
2015-05-05 00:31:00,69.0,61.0,30.14,West,279,1.0,10.0,76,-99.99,,,-99.99,0.000000,,2015-05-05 04:31:00,
2015-05-05 00:42:00,69.0,61.0,30.13,NW,305,2.0,8.0,75,-99.99,,,-99.99,0.000000,,2015-05-05 04:42:00,
2015-05-05 00:51:00,69.0,61.0,30.13,NW,321,0.0,3.0,75,-99.99,,,-99.99,0.000000,,2015-05-05 04:51:00,
2015-05-05 01:11:00,68.0,59.0,30.14,NW,321,0.0,0.0,74,-99.99,,,-99.99,0.000000,,2015-05-05 05:11:00,
2015-05-05 02:32:00,65.0,59.0,30.15,NNW,338,1.0,3.0,82,-99.99,,,-99.99,0.000000,,2015-05-05 06:32:00,
2015-05-05 06:02:00,63.0,60.0,30.16,SE,143,0.0,0.0,90,-99.99,,,-99.99,0.000000,,2015-05-05 10:02:00,
2015-05-05 07:12:00,60.0,58.0,30.17,SSE,151,0.0,0.0,93,-99.99,,,-99.99,9.000000,,2015-05-05 11:12:00,
2015-05-05 07:22:00,60.0,58.0,30.17,SSE,149,0.0,0.0,93,-99.99,,,-99.99,14.000000,,2015-05-05 11:22:00,
2015-05-05 08:12:00,63.0,61.0,30.19,East,85,0.0,2.0,93,-99.99,,,-99.99,120.000000,,2015-05-05 12:12:00,
2015-05-05 08:32:00,64.0,61.0,30.19,ESE,114,0.0,3.0,90,-99.99,,,-99.99,176.000000,,2015-05-05 12:32:00,
2015-05-05 08:42:00,65.0,61.0,30.19,East,86,0.0,2.0,88,-99.99,,,-99.99,232.000000,,2015-05-05 12:42:00,
2015-05-05 08:52:00,66.0,62.0,30.20,East,85,1.0,2.0,86,-99.99,,,-99.99,220.000000,,2015-05-05 12:52:00,
2015-05-05 09:31:00,69.0,63.0,30.20,South,183,1.0,5.0,81,-99.99,,,-99.99,385.000000,,2015-05-05 13:31:00,
2015-05-05 09:42:00,70.0,63.0,30.20,ESE,116,1.0,5.0,79,-99.99,,,-99.99,438.000000,,2015-05-05 13:42:00,
2015-05-05 11:11:00,75.0,62.0,30.20,SW,236,2.0,7.0,63,-99.99,,,-99.99,656.000000,,2015-05-05 15:11:00,
2015-05-05 12:12:00,79.0,58.0,30.19,SW,220,2.0,8.0,49,-99.99,,,-99.99,816.000000,,2015-05-05 16:12:00,
2015-05-05 12:32:00,80.0,58.0,30.19,SW,227,3.0,10.0,47,-99.99,,,-99.99,861.000000,,2015-05-05 16:32:00,
2015-05-05 12:42:00,80.0,57.0,30.19,SW,231,3.0,8.0,45,-99.99,,,-99.99,874.000000,,2015-05-05 16:42:00,
2015-05-05 14:42:00,82.0,59.0,30.16,SW,230,2.0,12.0,46,-99.99,,,-99.99,1071.000000,,2015-05-05 18:42:00,